createdAt,value
2018-10-01T00:00:32.776Z,21.11
2018-10-01T00:01:32.828Z,21.03
2018-10-01T00:02:32.864Z,21.11
2018-10-01T00:03:33.012Z,21.11
2018-10-01T00:04:32.927Z,21.15
2018-10-01T00:05:32.972Z,21.10
2018-10-01T00:06:33.007Z,21.10
2018-10-01T00:07:33.046Z,21.08
2018-10-01T00:08:33.078Z,21.19
2018-10-01T00:09:33.118Z,21.11
2018-10-01T00:10:33.148Z,21.13
2018-10-01T00:11:33.184Z,21.13
2018-10-01T00:12:33.223Z,21.13
2018-10-01T00:13:33.254Z,21.15
2018-10-01T00:14:33.298Z,21.10
2018-10-01T00:15:33.332Z,21.07
2018-10-01T00:16:33.364Z,21.11
2018-10-01T00:17:33.404Z,21.17
2018-10-01T00:18:33.438Z,21.13
2018-10-01T00:19:33.732Z,21.19
2018-10-01T00:20:33.514Z,21.13
2018-10-01T00:21:33.554Z,21.14
2018-10-01T00:22:33.641Z,21.13
2018-10-01T00:23:33.621Z,21.08
2018-10-01T00:24:33.663Z,21.14
2018-10-01T00:25:33.704Z,21.19
2018-10-01T00:26:33.740Z,21.13
2018-10-01T00:27:34.017Z,21.11
2018-10-01T00:28:33.804Z,21.11
2018-10-01T00:29:33.852Z,21.15
2018-10-01T00:30:34.138Z,21.11
2018-10-01T00:31:33.917Z,21.13
2018-10-01T00:32:33.966Z,21.13
2018-10-01T00:33:33.995Z,21.15
2018-10-01T00:34:34.286Z,21.08
2018-10-01T00:35:34.067Z,21.14
2018-10-01T00:36:34.098Z,21.15
2018-10-01T00:37:34.143Z,21.19
2018-10-01T00:38:34.261Z,21.14
2018-10-01T00:39:34.219Z,21.14
2018-10-01T00:40:34.254Z,21.10
2018-10-01T00:41:34.288Z,21.14
2018-10-01T00:42:34.329Z,21.13
2018-10-01T00:43:34.614Z,21.13
2018-10-01T00:44:34.400Z,21.08
2018-10-01T00:45:34.429Z,21.10
2018-10-01T00:46:34.464Z,21.10
2018-10-01T00:47:34.510Z,21.14
2018-10-01T00:48:34.545Z,21.03
2018-10-01T00:49:34.574Z,21.04
2018-10-01T00:50:34.614Z,21.04
2018-10-01T00:51:34.650Z,21.11
2018-10-01T00:52:34.931Z,21.05
2018-10-01T00:53:34.771Z,21.10
2018-10-01T00:54:35.008Z,21.11
2018-10-01T00:55:34.796Z,21.07
2018-10-01T00:56:34.832Z,21.13
2018-10-01T00:57:34.863Z,21.03
2018-10-01T00:58:34.906Z,21.13
2018-10-01T00:59:34.940Z,21.14
2018-10-01T01:00:34.985Z,21.03
2018-10-01T01:01:35.014Z,21.14
2018-10-01T01:02:35.048Z,21.04
2018-10-01T01:03:35.087Z,21.11
2018-10-01T01:04:35.369Z,21.08
2018-10-01T01:05:35.162Z,21.07
2018-10-01T01:06:35.799Z,21.05
2018-10-01T01:07:35.236Z,21.13
2018-10-01T01:08:35.273Z,21.08
2018-10-01T01:09:35.308Z,21.13
2018-10-01T01:10:35.348Z,21.05
2018-10-01T01:11:35.374Z,21.01
2018-10-01T01:12:35.414Z,21.14
2018-10-01T01:13:35.447Z,21.07
2018-10-01T01:14:35.491Z,21.14
2018-10-01T01:15:35.528Z,21.11
2018-10-01T01:16:35.563Z,21.11
2018-10-01T01:17:35.594Z,21.03
2018-10-01T01:18:35.637Z,21.03
2018-10-01T01:19:35.674Z,21.04
2018-10-01T01:20:35.953Z,21.05
2018-10-01T01:21:35.740Z,21.07
2018-10-01T01:22:35.787Z,21.01
2018-10-01T01:23:35.817Z,21.07
2018-10-01T01:24:35.852Z,21.03
2018-10-01T01:25:35.885Z,21.07
2018-10-01T01:26:35.930Z,21.08
2018-10-01T01:27:35.962Z,21.03
2018-10-01T01:28:36.002Z,21.04
2018-10-01T01:29:36.035Z,21.08
2018-10-01T01:30:36.079Z,21.07
2018-10-01T01:31:36.366Z,21.05
2018-10-01T01:32:36.148Z,21.05
2018-10-01T01:33:36.182Z,21.03
2018-10-01T01:34:36.218Z,21.03
2018-10-01T01:35:36.254Z,21.04
2018-10-01T01:36:36.541Z,21.04
2018-10-01T01:37:36.330Z,20.98
2018-10-01T01:38:36.619Z,21.11
2018-10-01T01:39:36.404Z,21.03
2018-10-01T01:40:36.440Z,21.01
2018-10-01T01:41:36.480Z,21.13
2018-10-01T01:42:36.765Z,21.14
2018-10-01T01:43:36.547Z,21.04
2018-10-01T01:44:36.588Z,21.07
2018-10-01T01:45:36.619Z,21.04
2018-10-01T01:46:36.656Z,21.03
2018-10-01T01:47:36.689Z,21.01
2018-10-01T01:48:36.729Z,21.03
2018-10-01T01:49:36.769Z,21.01
2018-10-01T01:50:36.810Z,21.05
2018-10-01T01:51:36.837Z,21.03
2018-10-01T01:52:36.873Z,21.01
2018-10-01T01:53:36.912Z,21.07
2018-10-01T01:54:36.948Z,21.04
2018-10-01T01:55:36.993Z,21.04
2018-10-01T01:56:37.026Z,21.07
2018-10-01T01:57:37.059Z,21.04
2018-10-01T01:58:37.342Z,21.03
2018-10-01T01:59:37.137Z,21.05
2018-10-01T02:00:37.174Z,21.04
2018-10-01T02:01:37.207Z,21.03
2018-10-01T02:02:37.242Z,21.05
2018-10-01T02:03:37.279Z,21.04
2018-10-01T02:04:37.566Z,21.08
2018-10-01T02:05:37.359Z,21.03
2018-10-01T02:06:37.392Z,21.04
2018-10-01T02:07:37.429Z,21.01
2018-10-01T02:08:37.466Z,21.07
2018-10-01T02:09:37.494Z,21.03
2018-10-01T02:10:37.789Z,21.03
2018-10-01T02:11:37.576Z,21.07
2018-10-01T02:12:37.607Z,21.05
2018-10-01T02:13:37.671Z,21.01
2018-10-01T02:14:37.681Z,21.03
2018-10-01T02:15:37.718Z,21.05
2018-10-01T02:16:37.762Z,21.01
2018-10-01T02:17:38.043Z,21.04
2018-10-01T02:18:37.827Z,21.08
2018-10-01T02:19:37.869Z,21.00
2018-10-01T02:20:38.158Z,21.03
2018-10-01T02:21:37.947Z,21.03
2018-10-01T02:22:37.981Z,21.05
2018-10-01T02:23:38.019Z,21.04
2018-10-01T02:24:38.301Z,21.04
2018-10-01T02:25:38.334Z,21.04
2018-10-01T02:26:38.121Z,21.04
2018-10-01T02:27:38.160Z,21.04
2018-10-01T02:28:38.199Z,21.04
2018-10-01T02:29:38.231Z,21.03
2018-10-01T02:30:38.526Z,21.03
2018-10-01T02:31:38.310Z,21.05
2018-10-01T02:32:38.338Z,21.04
2018-10-01T02:33:38.377Z,21.07
2018-10-01T02:34:38.410Z,21.08
2018-10-01T02:35:38.448Z,21.01
2018-10-01T02:36:38.484Z,21.08
2018-10-01T02:37:38.524Z,21.01
2018-10-01T02:38:38.562Z,21.05
2018-10-01T02:39:38.605Z,21.08
2018-10-01T02:40:38.633Z,21.05
2018-10-01T02:41:38.674Z,21.03
2018-10-01T02:42:38.712Z,21.03
2018-10-01T02:43:38.752Z,21.01
2018-10-01T02:44:38.787Z,21.01
2018-10-01T02:45:38.821Z,21.03
2018-10-01T02:46:38.861Z,21.01
2018-10-01T02:47:38.943Z,21.05
2018-10-01T02:48:38.930Z,21.05
2018-10-01T02:49:38.967Z,21.03
2018-10-01T02:50:39.004Z,21.03
2018-10-01T02:51:39.047Z,21.05
2018-10-01T02:52:39.320Z,21.07
2018-10-01T02:53:39.114Z,21.04
2018-10-01T02:54:39.144Z,21.05
2018-10-01T02:55:39.181Z,21.00
2018-10-01T02:56:39.218Z,21.05
2018-10-01T02:57:39.264Z,21.01
2018-10-01T02:58:39.303Z,21.01
2018-10-01T02:59:39.334Z,21.04
2018-10-01T03:00:39.366Z,21.05
2018-10-01T03:01:39.399Z,21.03
2018-10-01T03:02:39.687Z,21.05
2018-10-01T03:03:39.476Z,21.01
2018-10-01T03:04:39.509Z,21.03
2018-10-01T03:05:39.557Z,21.01
2018-10-01T03:06:39.592Z,21.01
2018-10-01T03:07:39.629Z,21.01
2018-10-01T03:08:39.911Z,20.98
2018-10-01T03:09:39.699Z,21.04
2018-10-01T03:10:39.727Z,21.01
2018-10-01T03:11:39.768Z,21.03
2018-10-01T03:12:39.800Z,21.05
2018-10-01T03:13:39.844Z,21.01
2018-10-01T03:14:40.123Z,21.01
2018-10-01T03:15:40.170Z,21.04
2018-10-01T03:16:39.959Z,21.01
2018-10-01T03:17:39.997Z,21.03
2018-10-01T03:18:40.019Z,21.03
2018-10-01T03:19:40.061Z,21.07
2018-10-01T03:20:40.100Z,20.98
2018-10-01T03:21:40.139Z,20.89
2018-10-01T03:22:40.173Z,21.07
2018-10-01T03:23:40.202Z,21.05
2018-10-01T03:24:40.242Z,20.89
2018-10-01T03:25:40.533Z,21.03
2018-10-01T03:26:40.322Z,21.01
2018-10-01T03:27:40.359Z,20.92
2018-10-01T03:28:40.386Z,20.93
2018-10-01T03:29:40.433Z,21.00
2018-10-01T03:30:40.468Z,20.89
2018-10-01T03:31:40.500Z,21.04
2018-10-01T03:32:40.543Z,20.92
2018-10-01T03:33:40.564Z,21.03
2018-10-01T03:34:40.613Z,20.89
2018-10-01T03:35:40.895Z,20.95
2018-10-01T03:36:41.035Z,21.04
2018-10-01T03:37:40.725Z,20.98
2018-10-01T03:38:40.747Z,20.96
2018-10-01T03:39:40.792Z,20.96
2018-10-01T03:40:40.826Z,20.93
2018-10-01T03:41:40.856Z,21.08
2018-10-01T03:42:40.892Z,21.10
2018-10-01T03:43:41.182Z,21.11
2018-10-01T03:44:40.963Z,21.14
2018-10-01T03:45:41.001Z,21.17
2018-10-01T03:46:41.045Z,21.15
2018-10-01T03:47:41.081Z,21.22
2018-10-01T03:48:41.111Z,21.22
2018-10-01T03:49:41.150Z,21.26
2018-10-01T03:50:41.187Z,21.29
2018-10-01T03:51:41.226Z,21.30
2018-10-01T03:52:41.255Z,21.23
2018-10-01T03:53:41.303Z,21.33
2018-10-01T03:54:41.580Z,21.56
2018-10-01T03:55:41.379Z,21.43
2018-10-01T03:56:41.410Z,21.48
2018-10-01T03:57:41.452Z,21.50
2018-10-01T03:58:41.478Z,21.45
2018-10-01T03:59:43.029Z,21.58
2018-10-01T04:00:41.559Z,21.54
2018-10-01T04:01:41.591Z,21.66
2018-10-01T04:02:41.636Z,21.60
2018-10-01T04:03:41.662Z,21.58
2018-10-01T04:04:41.712Z,21.59
2018-10-01T04:05:41.746Z,21.63
2018-10-01T04:06:41.779Z,21.58
2018-10-01T04:07:41.811Z,21.50
2018-10-01T04:08:41.886Z,21.44
2018-10-01T04:09:41.879Z,21.53
2018-10-01T04:10:41.920Z,21.48
2018-10-01T04:11:41.957Z,21.47
2018-10-01T04:12:41.997Z,21.53
2018-10-01T04:13:42.029Z,21.56
2018-10-01T04:14:42.063Z,21.53
2018-10-01T04:15:42.107Z,21.43
2018-10-01T04:16:42.414Z,21.51
2018-10-01T04:17:42.176Z,21.54
2018-10-01T04:18:42.209Z,21.54
2018-10-01T04:19:42.294Z,21.51
2018-10-01T04:20:42.285Z,21.53
2018-10-01T04:21:42.579Z,21.47
2018-10-01T04:22:42.449Z,21.47
2018-10-01T04:23:42.650Z,21.56
2018-10-01T04:24:42.435Z,21.60
2018-10-01T04:25:42.468Z,21.54
2018-10-01T04:26:42.502Z,21.58
2018-10-01T04:27:42.539Z,21.59
2018-10-01T04:28:42.573Z,21.58
2018-10-01T04:29:42.615Z,21.51
2018-10-01T04:30:42.654Z,21.43
2018-10-01T04:31:42.689Z,21.54
2018-10-01T04:32:42.727Z,21.41
2018-10-01T04:33:42.758Z,21.50
2018-10-01T04:34:43.048Z,21.47
2018-10-01T04:35:42.842Z,21.37
2018-10-01T04:36:42.899Z,21.44
2018-10-01T04:37:42.907Z,21.41
2018-10-01T04:38:42.940Z,21.45
2018-10-01T04:39:42.984Z,21.45
2018-10-01T04:40:43.073Z,21.41
2018-10-01T04:41:43.059Z,21.41
2018-10-01T04:42:43.097Z,21.44
2018-10-01T04:43:43.131Z,21.44
2018-10-01T04:44:43.169Z,21.41
2018-10-01T04:45:43.205Z,21.44
2018-10-01T04:46:43.510Z,21.40
2018-10-01T04:47:43.278Z,21.41
2018-10-01T04:48:43.316Z,21.50
2018-10-01T04:49:43.348Z,21.43
2018-10-01T04:50:43.379Z,21.43
2018-10-01T04:51:43.420Z,21.45
2018-10-01T04:52:43.453Z,21.58
2018-10-01T04:53:43.489Z,21.47
2018-10-01T04:54:43.534Z,21.44
2018-10-01T04:55:43.570Z,21.47
2018-10-01T04:56:43.608Z,21.50
2018-10-01T04:57:43.642Z,21.45
2018-10-01T04:58:43.685Z,21.50
2018-10-01T04:59:43.716Z,21.47
2018-10-01T05:00:43.757Z,21.47
2018-10-01T05:01:43.783Z,21.45
2018-10-01T05:02:44.069Z,21.41
2018-10-01T05:03:44.110Z,21.53
2018-10-01T05:04:43.894Z,21.60
2018-10-01T05:05:43.940Z,21.56
2018-10-01T05:06:43.968Z,21.48
2018-10-01T05:07:44.002Z,21.50
2018-10-01T05:08:44.039Z,21.48
2018-10-01T05:09:44.078Z,21.51
2018-10-01T05:10:44.118Z,21.59
2018-10-01T05:11:44.158Z,21.58
2018-10-01T05:12:44.195Z,21.53
2018-10-01T05:13:44.226Z,21.60
2018-10-01T05:14:44.332Z,21.60
2018-10-01T05:15:44.306Z,21.59
2018-10-01T05:16:44.341Z,21.66
2018-10-01T05:17:44.373Z,21.68
2018-10-01T05:18:44.410Z,21.66
2018-10-01T05:19:44.445Z,21.68
2018-10-01T05:20:44.479Z,21.72
2018-10-01T05:21:44.521Z,21.75
2018-10-01T05:22:44.560Z,21.72
2018-10-01T05:23:44.593Z,21.63
2018-10-01T05:24:44.628Z,21.69
2018-10-01T05:25:44.669Z,21.66
2018-10-01T05:26:44.698Z,21.69
2018-10-01T05:27:44.736Z,21.68
2018-10-01T05:28:44.778Z,21.62
2018-10-01T05:29:44.820Z,21.66
2018-10-01T05:30:44.852Z,21.70
2018-10-01T05:31:44.894Z,21.70
2018-10-01T05:32:44.925Z,21.69
2018-10-01T05:33:44.966Z,21.65
2018-10-01T05:34:44.999Z,21.68
2018-10-01T05:35:45.032Z,21.66
2018-10-01T05:36:45.316Z,21.75
2018-10-01T05:37:45.158Z,21.72
2018-10-01T05:38:45.146Z,21.75
2018-10-01T05:39:45.184Z,21.78
2018-10-01T05:40:45.227Z,21.70
2018-10-01T05:41:45.503Z,21.60
2018-10-01T05:42:45.286Z,21.63
2018-10-01T05:43:45.324Z,21.58
2018-10-01T05:44:45.363Z,21.59
2018-10-01T05:45:45.400Z,21.58
2018-10-01T05:46:45.690Z,21.47
2018-10-01T05:47:45.725Z,21.51
2018-10-01T05:48:45.509Z,21.50
2018-10-01T05:49:45.545Z,21.48
2018-10-01T05:50:45.580Z,21.41
2018-10-01T05:51:45.867Z,21.43
2018-10-01T05:52:45.666Z,21.58
2018-10-01T05:53:45.693Z,21.62
2018-10-01T05:54:45.735Z,21.53
2018-10-01T05:55:45.774Z,21.62
2018-10-01T05:56:45.807Z,21.53
2018-10-01T05:57:45.862Z,21.48
2018-10-01T05:58:45.886Z,21.50
2018-10-01T05:59:45.922Z,21.47
2018-10-01T06:00:45.948Z,21.58
2018-10-01T06:01:45.985Z,21.59
2018-10-01T06:02:46.025Z,21.54
2018-10-01T06:03:46.063Z,21.48
2018-10-01T06:04:46.117Z,21.47
2018-10-01T06:05:46.134Z,21.47
2018-10-01T06:06:46.168Z,21.47
2018-10-01T06:07:46.211Z,21.51
2018-10-01T06:08:46.253Z,21.40
2018-10-01T06:09:46.635Z,21.56
2018-10-01T06:10:46.314Z,21.51
2018-10-01T06:11:46.383Z,21.48
2018-10-01T06:12:46.390Z,21.54
2018-10-01T06:13:46.436Z,21.48
2018-10-01T06:14:46.472Z,21.58
2018-10-01T06:15:46.504Z,21.60
2018-10-01T06:16:46.801Z,21.68
2018-10-01T06:17:46.570Z,21.63
2018-10-01T06:18:46.611Z,21.62
2018-10-01T06:19:46.661Z,21.63
2018-10-01T06:20:46.692Z,21.63
2018-10-01T06:21:46.717Z,21.74
2018-10-01T06:22:47.007Z,21.77
2018-10-01T06:23:46.805Z,21.72
2018-10-01T06:24:46.840Z,21.68
2018-10-01T06:25:46.865Z,21.69
2018-10-01T06:26:46.906Z,21.62
2018-10-01T06:27:46.943Z,21.66
2018-10-01T06:28:46.976Z,21.60
2018-10-01T06:29:47.024Z,21.72
2018-10-01T06:30:47.317Z,21.69
2018-10-01T06:31:47.087Z,21.75
2018-10-01T06:32:47.126Z,21.77
2018-10-01T06:33:47.170Z,21.75
2018-10-01T06:34:47.207Z,21.75
2018-10-01T06:35:47.240Z,21.74
2018-10-01T06:36:47.519Z,21.72
2018-10-01T06:37:47.318Z,21.62
2018-10-01T06:38:47.351Z,21.62
2018-10-01T06:39:47.641Z,21.69
2018-10-01T06:40:47.429Z,21.68
2018-10-01T06:41:47.627Z,21.63
2018-10-01T06:42:47.495Z,21.65
2018-10-01T06:43:47.532Z,21.72
2018-10-01T06:44:47.816Z,21.69
2018-10-01T06:45:47.602Z,21.81
2018-10-01T06:46:47.641Z,21.77
2018-10-01T06:47:47.688Z,21.77
2018-10-01T06:48:47.713Z,21.72
2018-10-01T06:49:47.749Z,21.72
2018-10-01T06:50:48.093Z,21.83
2018-10-01T06:51:47.827Z,21.75
2018-10-01T06:52:47.860Z,21.72
2018-10-01T06:53:47.899Z,21.72
2018-10-01T06:54:47.944Z,21.69
2018-10-01T06:55:48.228Z,21.68
2018-10-01T06:56:48.006Z,21.53
2018-10-01T06:57:48.043Z,21.54
2018-10-01T06:58:48.080Z,21.43
2018-10-01T06:59:48.124Z,21.45
2018-10-01T07:00:48.164Z,21.48
2018-10-01T07:01:48.201Z,21.47
2018-10-01T07:02:48.239Z,21.44
2018-10-01T07:03:48.271Z,21.41
2018-10-01T07:04:48.311Z,21.47
2018-10-01T07:05:48.535Z,21.47
2018-10-01T07:06:48.374Z,21.51
2018-10-01T07:07:48.418Z,21.47
2018-10-01T07:08:48.453Z,21.47
2018-10-01T07:09:48.500Z,21.48
2018-10-01T07:10:48.524Z,21.43
2018-10-01T07:11:48.561Z,21.50
2018-10-01T07:12:48.594Z,21.54
2018-10-01T07:13:48.637Z,21.48
2018-10-01T07:14:48.679Z,21.54
2018-10-01T07:15:48.962Z,21.40
2018-10-01T07:16:48.804Z,21.45
2018-10-01T07:17:48.788Z,21.43
2018-10-01T07:18:48.814Z,21.41
2018-10-01T07:19:48.856Z,21.44
2018-10-01T07:20:48.888Z,21.43
2018-10-01T07:21:48.936Z,21.43
2018-10-01T07:22:49.025Z,21.53
2018-10-01T07:23:49.007Z,21.43
2018-10-01T07:24:49.039Z,21.56
2018-10-01T07:25:49.074Z,21.50
2018-10-01T07:26:49.113Z,21.58
2018-10-01T07:27:49.151Z,21.63
2018-10-01T07:28:49.182Z,21.59
2018-10-01T07:29:49.230Z,21.63
2018-10-01T07:30:49.264Z,21.62
2018-10-01T07:31:49.302Z,21.54
2018-10-01T07:32:49.333Z,21.59
2018-10-01T07:33:49.379Z,21.62
2018-10-01T07:34:49.408Z,21.60
2018-10-01T07:35:49.445Z,21.51
2018-10-01T07:36:49.477Z,21.56
2018-10-01T07:37:49.519Z,21.60
2018-10-01T07:38:49.562Z,21.51
2018-10-01T07:39:49.596Z,21.53
2018-10-01T07:40:49.630Z,21.60
2018-10-01T07:41:49.666Z,21.58
2018-10-01T07:42:49.702Z,21.65
2018-10-01T07:43:49.737Z,21.60
2018-10-01T07:44:49.856Z,21.54
2018-10-01T07:45:49.816Z,21.58
2018-10-01T07:46:49.851Z,21.60
2018-10-01T07:47:49.895Z,21.56
2018-10-01T07:48:49.931Z,21.65
2018-10-01T07:49:50.464Z,21.58
2018-10-01T07:50:50.148Z,21.58
2018-10-01T07:51:50.075Z,21.58
2018-10-01T07:52:50.068Z,21.59
2018-10-01T07:53:50.392Z,21.62
2018-10-01T07:54:50.148Z,21.53
2018-10-01T07:55:50.444Z,21.56
2018-10-01T07:56:50.222Z,21.58
2018-10-01T07:57:50.252Z,21.62
2018-10-01T07:58:50.304Z,21.59
2018-10-01T07:59:50.461Z,21.69
2018-10-01T08:00:50.373Z,21.60
2018-10-01T08:01:50.407Z,21.62
2018-10-01T08:02:50.448Z,21.68
2018-10-01T08:03:50.475Z,21.58
2018-10-01T08:04:50.511Z,21.59
2018-10-01T08:05:50.555Z,21.59
2018-10-01T08:06:50.843Z,21.59
2018-10-01T08:07:50.631Z,21.68
2018-10-01T08:08:50.913Z,21.60
2018-10-01T08:09:50.699Z,21.58
2018-10-01T08:10:50.732Z,21.58
2018-10-01T08:11:51.031Z,21.60
2018-10-01T08:12:50.810Z,21.54
2018-10-01T08:13:50.856Z,21.59
2018-10-01T08:14:50.891Z,21.63
2018-10-01T08:15:50.957Z,21.65
2018-10-01T08:16:50.961Z,21.66
2018-10-01T08:17:50.992Z,21.54
2018-10-01T08:18:51.028Z,21.56
2018-10-01T08:19:51.316Z,21.58
2018-10-01T08:20:51.114Z,21.68
2018-10-01T08:21:51.139Z,21.59
2018-10-01T08:22:51.180Z,21.58
2018-10-01T08:23:51.225Z,21.60
2018-10-01T08:24:51.510Z,21.63
2018-10-01T08:25:51.290Z,21.54
2018-10-01T08:26:51.328Z,21.59
2018-10-01T08:27:51.365Z,21.62
2018-10-01T08:28:51.402Z,21.59
2018-10-01T08:29:51.675Z,21.60
2018-10-01T08:30:51.479Z,21.68
2018-10-01T08:31:51.512Z,21.66
2018-10-01T08:32:51.545Z,21.63
2018-10-01T08:33:51.594Z,21.63
2018-10-01T08:34:51.620Z,21.60
2018-10-01T08:36:22.955Z,21.72
2018-10-01T08:37:23.000Z,21.68
2018-10-01T08:38:23.212Z,21.65
2018-10-01T08:39:23.065Z,21.68
2018-10-01T08:40:23.109Z,21.62
2018-10-01T08:41:23.402Z,21.66
2018-10-01T08:42:23.429Z,21.68
2018-10-01T08:43:23.224Z,21.59
2018-10-01T08:44:23.263Z,21.59
2018-10-01T08:45:23.296Z,21.63
2018-10-01T08:46:23.323Z,21.68
2018-10-01T08:47:23.491Z,21.63
2018-10-01T08:48:23.651Z,21.60
2018-10-01T08:49:23.435Z,21.59
2018-10-01T08:50:23.520Z,21.62
2018-10-01T08:51:23.511Z,21.63
2018-10-01T08:52:23.551Z,21.66
2018-10-01T08:53:23.645Z,21.63
2018-10-01T08:54:23.621Z,21.60
2018-10-01T08:55:23.654Z,21.65
2018-10-01T08:56:23.703Z,21.65
2018-10-01T08:57:23.736Z,21.65
2018-10-01T08:58:23.772Z,21.69
2018-10-01T08:59:23.881Z,21.75
2018-10-01T09:00:23.846Z,21.72
2018-10-01T09:01:23.886Z,21.74
2018-10-01T09:02:23.944Z,21.74
2018-10-01T09:03:23.958Z,21.72
2018-10-01T09:04:23.998Z,21.69
2018-10-01T09:05:24.086Z,21.72
2018-10-01T09:06:24.065Z,21.68
2018-10-01T09:07:24.102Z,21.70
2018-10-01T09:08:24.181Z,21.80
2018-10-01T09:09:24.179Z,21.68
2018-10-01T09:10:24.210Z,21.70
2018-10-01T09:11:24.268Z,21.70
2018-10-01T09:12:24.294Z,21.77
2018-10-01T09:13:24.332Z,21.69
2018-10-01T09:14:24.382Z,21.75
2018-10-01T09:15:24.395Z,21.77
2018-10-01T09:16:24.431Z,21.72
2018-10-01T09:17:24.484Z,21.69
2018-10-01T09:18:24.517Z,21.70
2018-10-01T09:19:24.554Z,21.85
2018-10-01T09:20:24.632Z,21.96
2018-10-01T09:21:24.675Z,21.96
2018-10-01T09:22:24.661Z,21.88
2018-10-01T09:23:25.021Z,21.99
2018-10-01T09:24:24.738Z,22.01
2018-10-01T09:25:24.764Z,22.04
2018-10-01T09:26:24.825Z,22.04
2018-10-01T09:27:24.858Z,22.04
2018-10-01T09:28:24.875Z,22.03
2018-10-01T09:29:24.959Z,22.01
2018-10-01T09:30:24.951Z,22.06
2018-10-01T09:31:24.990Z,22.03
2018-10-01T09:32:25.305Z,22.08
2018-10-01T09:33:25.064Z,22.00
2018-10-01T09:34:25.111Z,22.03
2018-10-01T09:35:25.142Z,22.14
2018-10-01T09:36:25.180Z,22.12
2018-10-01T09:37:25.216Z,22.15
2018-10-01T09:38:25.271Z,22.08
2018-10-01T09:39:25.539Z,22.19
2018-10-01T09:40:25.348Z,22.16
2018-10-01T09:41:25.368Z,22.21
2018-10-01T09:42:25.395Z,22.18
2018-10-01T09:43:25.440Z,22.19
2018-10-01T09:44:25.514Z,22.25
2018-10-01T09:45:25.513Z,22.37
2018-10-01T09:46:25.564Z,22.37
2018-10-01T09:47:25.580Z,22.23
2018-10-01T09:48:25.624Z,22.30
2018-10-01T09:49:25.653Z,22.28
2018-10-01T09:50:26.004Z,22.26
2018-10-01T09:51:25.736Z,22.26
2018-10-01T09:52:25.806Z,22.31
2018-10-01T09:53:25.802Z,22.25
2018-10-01T09:54:25.842Z,22.36
2018-10-01T09:55:25.881Z,22.26
2018-10-01T09:56:25.928Z,22.26
2018-10-01T09:57:26.212Z,22.41
2018-10-01T09:58:25.999Z,22.37
2018-10-01T09:59:26.032Z,22.36
2018-10-01T10:00:26.069Z,22.28
2018-10-01T10:01:26.108Z,22.38
2018-10-01T10:02:26.209Z,22.37
2018-10-01T10:03:26.173Z,22.36
2018-10-01T10:04:26.294Z,22.43
2018-10-01T10:05:26.258Z,22.43
2018-10-01T10:06:26.284Z,22.41
2018-10-01T10:07:26.333Z,22.46
2018-10-01T10:08:26.401Z,22.43
2018-10-01T10:09:26.407Z,22.49
2018-10-01T10:10:26.466Z,22.49
2018-10-01T10:11:26.484Z,22.47
2018-10-01T10:12:26.507Z,22.44
2018-10-01T10:13:26.548Z,22.52
2018-10-01T10:14:26.619Z,22.52
2018-10-01T10:15:26.624Z,22.58
2018-10-01T10:16:26.776Z,22.58
2018-10-01T10:17:26.713Z,22.59
2018-10-01T10:18:26.736Z,22.56
2018-10-01T10:19:26.776Z,22.53
2018-10-01T10:20:26.842Z,22.55
2018-10-01T10:21:26.843Z,22.58
2018-10-01T10:22:26.921Z,22.53
2018-10-01T10:23:27.172Z,22.51
2018-10-01T10:24:26.965Z,22.56
2018-10-01T10:25:26.994Z,22.55
2018-10-01T10:26:27.056Z,22.47
2018-10-01T10:27:27.080Z,22.46
2018-10-01T10:28:27.127Z,22.40
2018-10-01T10:29:27.149Z,22.31
2018-10-01T10:30:27.189Z,22.34
2018-10-01T10:31:27.227Z,22.31
2018-10-01T10:32:27.335Z,22.40
2018-10-01T10:33:27.291Z,22.37
2018-10-01T10:34:27.410Z,22.44
2018-10-01T10:35:27.444Z,22.37
2018-10-01T10:36:27.403Z,22.43
2018-10-01T10:37:27.448Z,22.49
2018-10-01T10:38:27.607Z,22.46
2018-10-01T10:39:27.530Z,22.46
2018-10-01T10:40:27.805Z,22.53
2018-10-01T10:41:27.592Z,22.52
2018-10-01T10:42:27.636Z,22.53
2018-10-01T10:43:27.673Z,22.61
2018-10-01T10:44:27.743Z,22.61
2018-10-01T10:45:27.749Z,22.52
2018-10-01T10:46:27.775Z,22.47
2018-10-01T10:47:27.813Z,22.63
2018-10-01T10:48:27.848Z,22.65
2018-10-01T10:49:27.887Z,22.55
2018-10-01T10:50:27.965Z,22.55
2018-10-01T10:51:27.973Z,22.58
2018-10-01T10:52:28.009Z,22.61
2018-10-01T10:53:28.046Z,22.68
2018-10-01T10:54:28.081Z,22.51
2018-10-01T10:55:28.116Z,22.61
2018-10-01T10:56:28.168Z,22.63
2018-10-01T10:57:28.193Z,22.65
2018-10-01T10:58:28.226Z,22.70
2018-10-01T10:59:28.261Z,22.80
2018-10-01T11:00:28.551Z,22.70
2018-10-01T11:01:28.596Z,22.67
2018-10-01T11:02:28.385Z,22.65
2018-10-01T11:03:28.416Z,22.78
2018-10-01T11:04:28.454Z,22.74
2018-10-01T11:05:28.491Z,22.78
2018-10-01T11:06:28.779Z,22.73
2018-10-01T11:07:28.813Z,22.70
2018-10-01T11:08:28.611Z,22.63
2018-10-01T11:09:28.646Z,22.70
2018-10-01T11:10:28.681Z,22.74
2018-10-01T11:11:28.963Z,22.78
2018-10-01T11:12:28.745Z,22.77
2018-10-01T11:13:28.794Z,22.77
2018-10-01T11:14:28.956Z,22.76
2018-10-01T11:15:28.880Z,22.77
2018-10-01T11:16:28.899Z,22.77
2018-10-01T11:17:29.032Z,22.71
2018-10-01T11:18:29.069Z,22.74
2018-10-01T11:19:29.020Z,22.65
2018-10-01T11:20:29.193Z,22.76
2018-10-01T11:21:29.147Z,22.73
2018-10-01T11:22:29.148Z,22.77
2018-10-01T11:23:29.162Z,22.80
2018-10-01T11:24:29.467Z,22.74
2018-10-01T11:25:29.370Z,22.76
2018-10-01T11:26:29.277Z,22.81
2018-10-01T11:27:29.332Z,22.76
2018-10-01T11:28:29.598Z,22.81
2018-10-01T11:29:29.377Z,22.74
2018-10-01T11:30:29.420Z,22.83
2018-10-01T11:31:29.543Z,22.86
2018-10-01T11:32:29.487Z,22.76
2018-10-01T11:33:29.536Z,22.83
2018-10-01T11:34:29.612Z,22.77
2018-10-01T11:35:29.671Z,22.74
2018-10-01T11:36:29.637Z,22.77
2018-10-01T11:37:29.675Z,22.77
2018-10-01T11:38:29.712Z,22.80
2018-10-01T11:39:29.820Z,22.78
2018-10-01T11:40:29.797Z,22.77
2018-10-01T11:41:29.840Z,22.71
2018-10-01T11:42:29.864Z,22.78
2018-10-01T11:43:29.909Z,22.68
2018-10-01T11:44:29.943Z,22.65
2018-10-01T11:45:30.038Z,22.68
2018-10-01T11:46:30.018Z,22.68
2018-10-01T11:47:30.060Z,22.68
2018-10-01T11:48:30.090Z,22.67
2018-10-01T11:49:30.127Z,22.70
2018-10-01T11:50:30.168Z,22.63
2018-10-01T11:51:30.209Z,22.70
2018-10-01T11:52:30.243Z,22.63
2018-10-01T11:53:30.277Z,22.56
2018-10-01T11:54:30.313Z,22.56
2018-10-01T11:55:30.352Z,22.61
2018-10-01T11:56:30.396Z,22.67
2018-10-01T11:57:30.433Z,22.53
2018-10-01T11:58:30.466Z,22.65
2018-10-01T11:59:30.508Z,22.58
2018-10-01T12:00:30.622Z,22.62
2018-10-01T12:01:30.576Z,22.62
2018-10-01T12:02:30.620Z,22.61
2018-10-01T12:03:30.710Z,22.68
2018-10-01T12:04:30.695Z,22.65
2018-10-01T12:05:30.726Z,22.68
2018-10-01T12:06:30.765Z,22.65
2018-10-01T12:07:30.813Z,22.65
2018-10-01T12:08:30.849Z,22.68
2018-10-01T12:09:30.946Z,22.74
2018-10-01T12:10:30.992Z,22.63
2018-10-01T12:11:30.961Z,22.68
2018-10-01T12:12:30.991Z,22.67
2018-10-01T12:13:31.032Z,22.76
2018-10-01T12:14:31.066Z,22.67
2018-10-01T12:15:31.184Z,22.65
2018-10-01T12:16:31.151Z,22.74
2018-10-01T12:17:31.441Z,22.86
2018-10-01T12:18:31.234Z,22.98
2018-10-01T12:19:31.263Z,22.91
2018-10-01T12:20:31.298Z,22.93
2018-10-01T12:21:31.452Z,23.02
2018-10-01T12:22:31.379Z,22.99
2018-10-01T12:23:31.409Z,22.99
2018-10-01T12:24:31.442Z,23.02
2018-10-01T12:25:31.492Z,23.06
2018-10-01T12:26:31.530Z,23.06
2018-10-01T12:27:31.618Z,23.20
2018-10-01T12:28:31.599Z,23.13
2018-10-01T12:29:31.888Z,23.17
2018-10-01T12:30:31.670Z,23.17
2018-10-01T12:31:31.719Z,23.13
2018-10-01T12:32:31.750Z,23.18
2018-10-01T12:33:31.845Z,23.26
2018-10-01T12:34:31.826Z,23.32
2018-10-01T12:35:31.861Z,23.29
2018-10-01T12:36:31.912Z,23.26
2018-10-01T12:37:31.943Z,23.34
2018-10-01T12:38:31.987Z,23.34
2018-10-01T12:39:32.029Z,23.45
2018-10-01T12:40:32.051Z,23.42
2018-10-01T12:41:32.093Z,23.48
2018-10-01T12:42:32.129Z,23.47
2018-10-01T12:43:32.178Z,23.55
2018-10-01T12:44:32.212Z,23.45
2018-10-01T12:45:32.336Z,23.51
2018-10-01T12:46:32.286Z,23.49
2018-10-01T12:47:32.325Z,23.44
2018-10-01T12:48:32.366Z,23.47
2018-10-01T12:49:32.644Z,23.40
2018-10-01T12:50:32.572Z,23.44
2018-10-01T12:51:32.543Z,23.44
2018-10-01T12:52:32.766Z,23.45
2018-10-01T12:53:32.553Z,23.42